createdAt,value
2022-12-07T00:01:39.790Z,99.15
2022-12-07T00:04:07.799Z,99.46
2022-12-07T00:06:36.376Z,99.32
2022-12-07T00:09:04.270Z,99.36
2022-12-07T00:11:30.836Z,98.89
2022-12-07T00:13:59.575Z,99.08
2022-12-07T00:16:28.563Z,98.92
2022-12-07T00:18:55.605Z,99.21
2022-12-07T00:21:30.659Z,99.06
2022-12-07T00:23:57.945Z,98.96
2022-12-07T00:26:30.112Z,99.04
2022-12-07T00:28:59.431Z,99.36
2022-12-07T00:31:29.658Z,99.37
2022-12-07T00:33:56.504Z,99.41
2022-12-07T00:36:26.954Z,98.87
2022-12-07T00:38:55.438Z,98.96
2022-12-07T00:41:24.331Z,98.72
2022-12-07T00:43:51.222Z,99.40
2022-12-07T00:46:18.779Z,99.91
2022-12-07T00:48:45.642Z,99.64
2022-12-07T00:51:13.446Z,99.94
2022-12-07T00:53:41.982Z,99.21
2022-12-07T00:56:10.010Z,99.08
2022-12-07T00:58:36.603Z,99.07
2022-12-07T01:01:04.479Z,98.11
2022-12-07T01:03:30.998Z,98.04
2022-12-07T01:06:00.517Z,98.06
2022-12-07T01:08:28.975Z,98.39
2022-12-07T01:11:03.849Z,98.52
2022-12-07T01:13:30.530Z,97.51
2022-12-07T01:15:59.250Z,97.92
2022-12-07T01:18:25.642Z,98.18
2022-12-07T01:20:59.939Z,97.38
2022-12-07T01:23:26.347Z,97.19
2022-12-07T01:26:00.010Z,97.45
2022-12-07T01:28:27.131Z,97.76
2022-12-07T01:31:01.659Z,97.59
2022-12-07T01:33:33.468Z,97.65
2022-12-07T01:36:06.686Z,97.72
2022-12-07T01:38:34.117Z,97.76
2022-12-07T01:41:02.087Z,97.87
2022-12-07T01:43:29.885Z,97.57
2022-12-07T01:45:57.178Z,97.19
2022-12-07T01:48:28.829Z,97.64
2022-12-07T01:50:57.897Z,97.82
2022-12-07T01:53:26.534Z,97.67
2022-12-07T01:55:53.943Z,97.96
2022-12-07T01:58:20.611Z,98.17
2022-12-07T02:00:47.491Z,97.75
2022-12-07T02:03:26.644Z,98.38
2022-12-07T02:05:53.942Z,98.82
2022-12-07T02:08:21.000Z,98.63
2022-12-07T02:10:47.529Z,98.67
2022-12-07T02:13:14.791Z,98.51
2022-12-07T02:15:56.447Z,98.10
2022-12-07T02:18:34.620Z,98.16
2022-12-07T02:21:13.116Z,98.19
2022-12-07T02:23:53.114Z,97.95
2022-12-07T02:26:45.478Z,98.23
2022-12-07T02:29:19.235Z,98.14
2022-12-07T02:31:55.094Z,98.59
2022-12-07T02:34:33.815Z,98.92
2022-12-07T02:37:04.590Z,99.29
2022-12-07T02:39:52.257Z,99.75
2022-12-07T02:42:24.513Z,99.22
2022-12-07T02:44:51.745Z,99.32
2022-12-07T02:47:18.627Z,99.13
2022-12-07T02:49:45.335Z,99.25
2022-12-07T02:52:11.776Z,98.86
2022-12-07T02:54:38.330Z,98.91
2022-12-07T02:57:33.441Z,98.78
2022-12-07T03:00:12.475Z,98.70
2022-12-07T03:02:50.427Z,98.22
2022-12-07T03:05:39.186Z,98.39
2022-12-07T03:08:17.545Z,97.93
2022-12-07T03:10:43.954Z,98.58
2022-12-07T03:13:16.872Z,98.51
2022-12-07T03:16:15.252Z,98.39
2022-12-07T03:18:48.702Z,98.98
2022-12-07T03:21:18.097Z,98.79
2022-12-07T03:23:48.014Z,98.98
2022-12-07T03:26:16.199Z,98.82
2022-12-07T03:28:49.532Z,98.48
2022-12-07T03:31:23.366Z,98.25
2022-12-07T03:34:02.551Z,97.57
2022-12-07T03:36:35.666Z,97.83
2022-12-07T03:39:10.622Z,98.10
2022-12-07T03:41:43.499Z,98.45
2022-12-07T03:44:11.562Z,98.01
2022-12-07T03:46:50.068Z,98.28
2022-12-07T03:49:33.662Z,98.28
2022-12-07T03:52:13.790Z,98.39
2022-12-07T03:54:50.423Z,98.18
2022-12-07T03:57:17.130Z,98.23
2022-12-07T03:59:43.815Z,98.83
2022-12-07T04:02:12.765Z,98.42
2022-12-07T04:04:39.470Z,98.41
2022-12-07T04:07:06.032Z,98.22
2022-12-07T04:09:32.490Z,98.48
2022-12-07T04:11:58.944Z,98.88
2022-12-07T04:14:25.471Z,98.87
2022-12-07T04:16:54.718Z,99.24
2022-12-07T04:19:23.584Z,99.12
2022-12-07T04:21:50.051Z,99.31
2022-12-07T04:24:17.228Z,100.00
2022-12-07T04:26:44.416Z,99.90
2022-12-07T04:29:11.171Z,99.99
2022-12-07T04:31:38.306Z,99.42
2022-12-07T04:34:04.927Z,99.59
2022-12-07T04:36:34.555Z,99.71
2022-12-07T04:39:01.887Z,100.00
2022-12-07T04:41:28.643Z,99.62
2022-12-07T04:44:02.786Z,99.27
2022-12-07T04:46:31.631Z,99.36
2022-12-07T04:49:01.365Z,99.42
2022-12-07T04:51:29.480Z,99.55
2022-12-07T04:53:56.822Z,99.53
2022-12-07T04:56:24.244Z,99.71
2022-12-07T04:58:51.753Z,99.26
2022-12-07T05:01:19.166Z,99.35
2022-12-07T05:03:46.107Z,99.32
2022-12-07T05:06:13.845Z,99.22
2022-12-07T05:08:40.873Z,99.65
2022-12-07T05:11:08.793Z,99.45
2022-12-07T05:13:36.167Z,99.65
2022-12-07T05:16:03.350Z,99.54
2022-12-07T05:18:29.851Z,99.78
2022-12-07T05:20:59.065Z,100.00
2022-12-07T05:23:25.543Z,99.99
2022-12-07T05:25:51.927Z,99.77
2022-12-07T05:28:18.382Z,100.00
2022-12-07T05:30:44.774Z,100.00
2022-12-07T05:33:11.209Z,100.00
2022-12-07T05:35:38.822Z,99.48
2022-12-07T05:38:05.280Z,99.75
2022-12-07T05:40:31.739Z,99.62
2022-12-07T05:43:04.021Z,99.84
2022-12-07T05:45:31.181Z,99.88
2022-12-07T05:47:57.662Z,99.85
2022-12-07T05:50:24.138Z,100.00
2022-12-07T05:52:50.521Z,100.00
2022-12-07T05:55:16.910Z,99.48
2022-12-07T05:58:03.282Z,100.00
2022-12-07T06:00:30.160Z,99.49
2022-12-07T06:02:56.588Z,99.91
2022-12-07T06:05:23.072Z,99.67
2022-12-07T06:07:49.494Z,99.62
2022-12-07T06:10:16.126Z,99.77
2022-12-07T06:12:44.041Z,100.00
2022-12-07T06:15:11.250Z,99.16
2022-12-07T06:17:37.903Z,99.54
2022-12-07T06:20:04.954Z,99.38
2022-12-07T06:22:31.562Z,99.86
2022-12-07T06:24:57.958Z,100.00
2022-12-07T06:27:24.364Z,100.00
2022-12-07T06:29:50.799Z,99.58
2022-12-07T06:32:17.545Z,99.20
2022-12-07T06:34:44.015Z,99.49
2022-12-07T06:37:10.439Z,99.55
2022-12-07T06:39:36.922Z,99.24
2022-12-07T06:42:03.323Z,99.72
2022-12-07T06:44:29.749Z,99.88
2022-12-07T06:47:24.618Z,99.65
2022-12-07T06:49:42.584Z,99.89
2022-12-07T06:52:08.953Z,99.51
2022-12-07T06:54:35.364Z,99.52
2022-12-07T06:57:04.682Z,100.00
2022-12-07T06:59:31.087Z,100.00
2022-12-07T07:01:57.553Z,100.00
2022-12-07T07:04:24.598Z,100.00
2022-12-07T07:06:55.287Z,99.42
2022-12-07T07:09:24.681Z,99.44
2022-12-07T07:11:51.077Z,99.78
2022-12-07T07:14:19.971Z,99.60
2022-12-07T07:16:46.417Z,100.00
2022-12-07T07:19:12.826Z,100.00
2022-12-07T07:21:39.262Z,99.90
2022-12-07T07:24:06.081Z,100.00
2022-12-07T07:26:32.496Z,100.00
2022-12-07T07:28:58.908Z,99.98
2022-12-07T07:31:25.318Z,100.00
2022-12-07T07:33:51.749Z,100.00
2022-12-07T07:36:18.293Z,99.76
2022-12-07T07:38:44.735Z,99.26
2022-12-07T07:41:14.242Z,99.83
2022-12-07T07:43:40.636Z,100.00
2022-12-07T07:46:07.089Z,100.00
2022-12-07T07:48:36.386Z,100.00
2022-12-07T07:51:07.019Z,100.00
2022-12-07T07:53:33.608Z,100.00
2022-12-07T07:56:00.032Z,100.00
2022-12-07T07:58:26.529Z,100.00
2022-12-07T08:00:53.011Z,100.00
2022-12-07T08:03:19.444Z,100.00
2022-12-07T08:05:45.894Z,100.00
2022-12-07T08:08:12.489Z,100.00
2022-12-07T08:10:39.586Z,100.00
2022-12-07T08:13:11.611Z,100.00
2022-12-07T08:15:39.594Z,100.00
2022-12-07T08:18:06.511Z,100.00
2022-12-07T08:20:33.870Z,100.00
2022-12-07T08:23:00.662Z,100.00
2022-12-07T08:25:28.381Z,100.00
2022-12-07T08:27:55.020Z,100.00
2022-12-07T08:30:22.065Z,100.00
2022-12-07T08:32:49.054Z,100.00
2022-12-07T08:35:15.889Z,100.00
2022-12-07T08:37:42.371Z,100.00
2022-12-07T08:40:10.847Z,100.00
2022-12-07T08:42:41.072Z,100.00
2022-12-07T08:45:10.462Z,100.00
2022-12-07T08:47:42.662Z,100.00
2022-12-07T08:50:09.692Z,100.00
2022-12-07T08:52:36.887Z,100.00
2022-12-07T08:55:04.788Z,100.00
2022-12-07T08:57:31.825Z,100.00
2022-12-07T08:59:59.013Z,99.96
2022-12-07T09:02:25.830Z,100.00
2022-12-07T09:04:52.278Z,100.00
2022-12-07T09:07:18.843Z,100.00
2022-12-07T09:09:45.287Z,100.00
2022-12-07T09:12:11.712Z,100.00
2022-12-07T09:14:38.176Z,100.00
2022-12-07T09:17:12.311Z,100.00
2022-12-07T09:19:39.380Z,100.00
2022-12-07T09:22:06.101Z,100.00
2022-12-07T09:24:32.851Z,100.00
2022-12-07T09:26:59.233Z,100.00
2022-12-07T09:29:25.872Z,100.00
2022-12-07T09:31:53.244Z,100.00
2022-12-07T09:34:19.934Z,100.00
2022-12-07T09:36:46.795Z,100.00
2022-12-07T09:39:13.208Z,100.00
2022-12-07T09:41:41.260Z,100.00
2022-12-07T09:44:12.040Z,100.00
2022-12-07T09:46:41.461Z,100.00
2022-12-07T09:49:13.341Z,100.00
2022-12-07T09:51:39.809Z,100.00
2022-12-07T09:54:06.232Z,99.92
2022-12-07T09:56:32.767Z,99.88
2022-12-07T09:59:02.148Z,99.53
2022-12-07T10:01:31.234Z,99.91
2022-12-07T10:04:25.029Z,99.61
2022-12-07T10:06:54.885Z,98.97
2022-12-07T10:09:22.702Z,98.94
2022-12-07T10:12:12.347Z,98.44
2022-12-07T10:15:09.176Z,98.19
2022-12-07T10:17:44.511Z,97.67
2022-12-07T10:20:21.254Z,97.39
2022-12-07T10:23:05.686Z,96.99
2022-12-07T10:25:35.433Z,95.86
2022-12-07T10:28:10.012Z,97.05
2022-12-07T10:30:50.033Z,96.51
2022-12-07T10:33:29.148Z,96.47
2022-12-07T10:35:56.772Z,96.31
2022-12-07T10:38:24.836Z,95.59
2022-12-07T10:41:10.542Z,95.12
2022-12-07T10:43:37.002Z,95.65
2022-12-07T10:46:37.150Z,95.61
2022-12-07T10:49:48.246Z,95.37
2022-12-07T10:52:39.190Z,94.10
2022-12-07T10:55:11.275Z,94.53
2022-12-07T10:57:40.709Z,93.93
2022-12-07T11:00:23.253Z,93.45
2022-12-07T11:03:14.488Z,93.81
2022-12-07T11:05:43.796Z,92.22
2022-12-07T11:08:37.434Z,93.01
2022-12-07T11:11:30.304Z,92.44
2022-12-07T11:14:03.273Z,91.70
2022-12-07T11:16:46.920Z,91.02
2022-12-07T11:19:22.760Z,90.98
2022-12-07T11:22:01.882Z,90.65
2022-12-07T11:24:31.392Z,90.79
2022-12-07T11:27:24.058Z,91.17
2022-12-07T11:30:12.517Z,91.65
2022-12-07T11:33:05.296Z,91.96
2022-12-07T11:35:40.514Z,91.91
2022-12-07T11:38:17.618Z,91.06
2022-12-07T11:40:50.086Z,90.06
2022-12-07T11:43:23.779Z,89.43
2022-12-07T11:46:09.969Z,89.90
2022-12-07T11:48:40.673Z,89.12
2022-12-07T11:51:10.973Z,89.60
2022-12-07T11:53:56.109Z,88.13
2022-12-07T11:56:24.449Z,89.30
2022-12-07T11:59:00.210Z,89.94
2022-12-07T12:01:38.861Z,89.15
2022-12-07T12:04:11.227Z,88.63
2022-12-07T12:06:39.006Z,88.95
2022-12-07T12:15:19.173Z,88.13
2022-12-07T12:17:57.946Z,88.30
2022-12-07T12:20:29.008Z,88.49
2022-12-07T12:23:22.943Z,88.75
2022-12-07T12:25:54.570Z,89.20
2022-12-07T12:28:21.416Z,88.36
2022-12-07T12:31:08.650Z,88.06
2022-12-07T12:33:36.012Z,88.37
2022-12-07T12:36:31.941Z,88.30
2022-12-07T12:39:20.238Z,88.39
2022-12-07T12:41:46.634Z,88.40
2022-12-07T12:44:15.997Z,88.70
2022-12-07T12:46:50.698Z,88.68
2022-12-07T12:49:17.234Z,88.78
2022-12-07T12:51:55.965Z,87.97
2022-12-07T12:54:27.844Z,88.31
2022-12-07T12:57:15.990Z,88.13
2022-12-07T12:59:54.686Z,88.66
2022-12-07T13:02:23.209Z,88.19
2022-12-07T13:04:56.954Z,88.14
2022-12-07T13:07:45.242Z,88.07
2022-12-07T13:10:29.455Z,87.38
2022-12-07T13:12:59.794Z,88.23
2022-12-07T13:15:33.134Z,87.93
2022-12-07T13:18:02.050Z,88.09
2022-12-07T13:21:00.541Z,88.69
2022-12-07T13:23:37.058Z,88.20
2022-12-07T13:26:26.101Z,88.18
2022-12-07T13:29:28.074Z,88.67
2022-12-07T13:31:59.725Z,88.08
2022-12-07T13:34:33.686Z,88.14
2022-12-07T13:37:12.969Z,88.72
2022-12-07T13:39:54.791Z,87.93
2022-12-07T13:42:30.395Z,86.93
2022-12-07T13:44:58.376Z,86.90
2022-12-07T13:47:43.050Z,87.22
2022-12-07T13:50:36.031Z,86.21
2022-12-07T13:53:02.493Z,86.91
2022-12-07T13:55:29.754Z,87.26
2022-12-07T13:57:56.948Z,87.26
2022-12-07T14:00:29.004Z,86.94
2022-12-07T14:03:22.599Z,88.06
2022-12-07T14:06:26.197Z,87.04
2022-12-07T14:09:07.819Z,86.30
2022-12-07T14:11:40.062Z,86.80
2022-12-07T14:14:07.119Z,86.49
2022-12-07T14:16:37.940Z,86.21
2022-12-07T14:19:06.554Z,86.62
2022-12-07T14:21:37.203Z,86.70
2022-12-07T14:24:18.486Z,87.40
2022-12-07T14:26:56.488Z,87.10
2022-12-07T14:29:25.884Z,86.39
2022-12-07T14:31:53.483Z,87.54
2022-12-07T14:34:26.655Z,87.80
2022-12-07T14:36:53.187Z,87.83
2022-12-07T14:39:19.706Z,87.15
2022-12-07T14:41:52.076Z,86.87
2022-12-07T14:44:25.119Z,86.64
2022-12-07T14:49:41.772Z,87.94
2022-12-07T14:55:02.951Z,87.65
2022-12-07T14:57:31.091Z,87.56
2022-12-07T14:59:57.483Z,88.90
2022-12-07T15:02:23.893Z,88.83
2022-12-07T15:04:50.323Z,88.56
2022-12-07T15:07:21.269Z,87.26
2022-12-07T15:09:49.211Z,86.96
2022-12-07T15:12:16.257Z,87.21
2022-12-07T15:14:46.433Z,87.80
2022-12-07T15:17:27.734Z,87.60
2022-12-07T15:19:54.539Z,86.93
2022-12-07T15:22:20.929Z,87.50
2022-12-07T15:24:47.390Z,88.03
2022-12-07T15:27:14.992Z,88.12
2022-12-07T15:29:41.502Z,87.50
2022-12-07T15:32:07.943Z,87.61
2022-12-07T15:34:39.889Z,88.52
2022-12-07T15:37:07.225Z,88.78
2022-12-07T15:39:33.968Z,88.01
2022-12-07T15:42:00.392Z,88.50
2022-12-07T15:44:45.169Z,89.33
2022-12-07T15:47:11.674Z,88.99
2022-12-07T15:49:38.109Z,89.42
2022-12-07T15:52:04.610Z,89.03
2022-12-07T15:54:32.933Z,90.22
2022-12-07T15:57:02.577Z,89.61
2022-12-07T15:59:29.618Z,89.92
2022-12-07T16:01:56.852Z,90.96
2022-12-07T16:04:27.774Z,90.91
2022-12-07T16:06:57.541Z,90.67
2022-12-07T16:09:27.615Z,92.13
2022-12-07T16:11:54.117Z,91.96
2022-12-07T16:14:20.916Z,91.62
2022-12-07T16:16:47.827Z,91.81
2022-12-07T16:19:14.498Z,91.91
2022-12-07T16:21:41.411Z,92.18
2022-12-07T16:24:08.316Z,92.65
2022-12-07T16:26:34.829Z,92.46
2022-12-07T16:29:01.267Z,92.96
2022-12-07T16:31:28.580Z,92.98
2022-12-07T16:33:57.019Z,93.08
2022-12-07T16:36:55.002Z,92.52
2022-12-07T16:39:16.476Z,92.97
2022-12-07T16:41:48.532Z,92.88
2022-12-07T16:44:15.104Z,92.93
2022-12-07T16:46:41.999Z,92.97
2022-12-07T16:49:12.731Z,92.85
2022-12-07T16:51:39.635Z,92.83
2022-12-07T16:54:06.064Z,92.93
2022-12-07T16:56:32.465Z,93.30
2022-12-07T16:58:59.619Z,93.18
2022-12-07T17:01:29.452Z,93.86
2022-12-07T17:03:57.874Z,94.24
2022-12-07T17:06:27.085Z,93.98
2022-12-07T17:08:53.550Z,93.99
2022-12-07T17:11:25.661Z,94.21
2022-12-07T17:14:11.983Z,94.23
2022-12-07T17:16:39.568Z,94.94
2022-12-07T17:19:07.693Z,94.60
2022-12-07T17:21:34.074Z,94.70
2022-12-07T17:24:01.117Z,94.96
2022-12-07T17:26:31.994Z,94.75
2022-12-07T17:29:01.769Z,94.47
2022-12-07T17:31:28.330Z,94.09
2022-12-07T17:33:57.311Z,94.25
2022-12-07T17:36:26.817Z,93.83
2022-12-07T17:38:53.890Z,94.78
2022-12-07T17:41:45.008Z,94.74
2022-12-07T17:44:19.192Z,94.79
2022-12-07T17:46:46.733Z,94.33
2022-12-07T17:49:14.656Z,94.01
2022-12-07T17:52:00.874Z,94.31
2022-12-07T17:54:30.133Z,95.10
2022-12-07T17:56:56.578Z,95.50
2022-12-07T17:59:26.725Z,94.58
2022-12-07T18:01:55.453Z,94.96
2022-12-07T18:04:21.963Z,94.89
2022-12-07T18:06:52.069Z,94.61
2022-12-07T18:09:20.938Z,95.30
2022-12-07T18:11:50.884Z,95.20
2022-12-07T18:14:17.428Z,96.16
2022-12-07T18:16:45.154Z,95.23
2022-12-07T18:19:14.413Z,95.21
2022-12-07T18:21:41.560Z,94.82
2022-12-07T18:24:12.571Z,95.62
2022-12-07T18:26:39.367Z,94.89
2022-12-07T18:29:07.192Z,95.25
2022-12-07T18:31:34.935Z,95.18
2022-12-07T18:34:04.661Z,95.07
2022-12-07T18:36:31.527Z,95.14
2022-12-07T18:38:57.918Z,94.91
2022-12-07T18:41:24.355Z,95.27
2022-12-07T18:43:50.735Z,94.92
2022-12-07T18:46:20.065Z,95.15
2022-12-07T18:48:48.611Z,95.55
2022-12-07T18:51:15.448Z,95.79
2022-12-07T18:53:43.497Z,96.10
2022-12-07T18:56:21.188Z,95.90
2022-12-07T18:59:14.787Z,95.93
2022-12-07T19:01:43.324Z,95.99
2022-12-07T19:04:09.960Z,96.69
2022-12-07T19:06:36.879Z,95.42
2022-12-07T19:09:06.412Z,95.79
2022-12-07T19:11:52.307Z,95.52
2022-12-07T19:14:32.627Z,95.82
2022-12-07T19:17:05.224Z,95.73
2022-12-07T19:19:34.384Z,96.21
2022-12-07T19:22:01.135Z,96.02
2022-12-07T19:24:28.492Z,96.27
2022-12-07T19:26:54.979Z,96.19
2022-12-07T19:29:21.545Z,96.09
2022-12-07T19:31:48.170Z,96.59
2022-12-07T19:34:17.287Z,95.85
2022-12-07T19:36:44.521Z,96.38
2022-12-07T19:39:14.668Z,96.55
2022-12-07T19:41:46.247Z,96.56
2022-12-07T19:44:16.716Z,96.73
2022-12-07T19:46:46.425Z,97.15
2022-12-07T19:49:16.628Z,97.17
2022-12-07T19:51:49.644Z,96.69
2022-12-07T19:54:18.777Z,96.63
2022-12-07T19:56:49.582Z,96.53
2022-12-07T19:59:16.537Z,97.47
2022-12-07T20:01:43.652Z,96.86
2022-12-07T20:04:20.035Z,97.18
2022-12-07T20:06:51.618Z,96.32
2022-12-07T20:09:18.963Z,96.38
2022-12-07T20:12:04.039Z,97.07
2022-12-07T20:14:33.548Z,96.81
2022-12-07T20:17:00.203Z,96.90
2022-12-07T20:19:26.682Z,96.97
2022-12-07T20:21:53.048Z,96.98
2022-12-07T20:24:21.985Z,97.43
2022-12-07T20:26:53.038Z,97.44
2022-12-07T20:29:25.830Z,97.21
2022-12-07T20:31:53.998Z,97.08
2022-12-07T20:34:26.942Z,96.97
2022-12-07T20:36:54.348Z,97.47
2022-12-07T20:39:20.840Z,96.61
2022-12-07T20:42:05.876Z,96.97
2022-12-07T20:44:35.754Z,96.71
2022-12-07T20:47:03.093Z,97.60
2022-12-07T20:49:31.617Z,97.18
2022-12-07T20:51:58.068Z,96.69
2022-12-07T20:54:26.003Z,97.09
2022-12-07T20:56:52.444Z,96.83
2022-12-07T20:59:21.659Z,96.16
2022-12-07T21:01:48.528Z,96.67
2022-12-07T21:04:15.373Z,97.02
2022-12-07T21:06:42.103Z,97.00
2022-12-07T21:09:12.821Z,97.50
2022-12-07T21:11:39.506Z,97.08
2022-12-07T21:14:06.035Z,97.96
2022-12-07T21:16:32.711Z,97.19
2022-12-07T21:19:03.764Z,97.32
2022-12-07T21:21:42.009Z,97.33
2022-12-07T21:24:11.689Z,97.75
2022-12-07T21:26:38.854Z,97.83
2022-12-07T21:29:06.955Z,96.94
2022-12-07T21:31:34.171Z,97.73
2022-12-07T21:34:04.859Z,97.43
2022-12-07T21:36:32.293Z,96.90
2022-12-07T21:38:58.970Z,96.97
2022-12-07T21:41:30.824Z,97.15
2022-12-07T21:43:57.693Z,97.80
2022-12-07T21:46:31.262Z,97.20
2022-12-07T21:49:01.361Z,96.88
2022-12-07T21:51:29.287Z,97.80
2022-12-07T21:53:57.407Z,97.39
2022-12-07T21:56:35.842Z,97.36
2022-12-07T21:59:08.105Z,96.75
2022-12-07T22:01:37.962Z,96.48
2022-12-07T22:04:06.138Z,97.38
2022-12-07T22:06:33.413Z,97.75
2022-12-07T22:09:00.043Z,97.11
2022-12-07T22:11:26.460Z,97.13
2022-12-07T22:14:11.598Z,97.93
2022-12-07T22:16:39.145Z,97.38
2022-12-07T22:19:06.468Z,97.78
2022-12-07T22:21:33.179Z,98.44
2022-12-07T22:23:59.601Z,97.29
2022-12-07T22:26:26.026Z,97.30
2022-12-07T22:28:52.465Z,97.97
2022-12-07T22:31:19.882Z,98.11
2022-12-07T22:33:46.398Z,97.39
2022-12-07T22:36:12.939Z,97.78
2022-12-07T22:38:40.463Z,97.90
2022-12-07T22:41:24.135Z,98.40
2022-12-07T22:43:50.626Z,98.56
2022-12-07T22:46:17.033Z,98.52
2022-12-07T22:48:43.662Z,98.35
2022-12-07T22:51:20.214Z,98.40
2022-12-07T22:53:46.608Z,98.14
2022-12-07T22:56:13.083Z,98.21
2022-12-07T22:58:40.008Z,98.60
2022-12-07T23:01:11.063Z,98.26
2022-12-07T23:03:37.655Z,98.81
2022-12-07T23:06:09.511Z,98.75
2022-12-07T23:08:36.331Z,98.74
2022-12-07T23:11:04.111Z,99.11
2022-12-07T23:13:33.471Z,99.21
2022-12-07T23:16:00.780Z,98.93
2022-12-07T23:18:27.601Z,99.76
2022-12-07T23:20:57.248Z,99.78
2022-12-07T23:23:23.690Z,99.28
2022-12-07T23:25:50.226Z,99.42
2022-12-07T23:28:16.610Z,99.75
2022-12-07T23:30:43.005Z,99.47
2022-12-07T23:33:09.407Z,100.00
2022-12-07T23:35:35.819Z,99.75
2022-12-07T23:38:02.244Z,99.42
2022-12-07T23:40:28.704Z,99.63
2022-12-07T23:42:55.119Z,99.24
2022-12-07T23:45:21.666Z,99.46
2022-12-07T23:47:48.091Z,98.61
2022-12-07T23:50:14.508Z,99.13
2022-12-07T23:52:40.952Z,99.45
2022-12-07T23:55:07.726Z,99.38
2022-12-07T23:57:34.140Z,100.00
